Time;durP1;ratioP1;P1;durP2;ratioP2;P2;SDS_P1;SDS_P2;PMS_P1;PMS_P2;Temp;Humidity;BMP_temperature;BMP_pressure;BME280_temperature;BME280_humidity;BME280_pressure;Samples;Min_cycle;Max_cycle;Signal;HPM_P1;HPM_P2
2021/03/18 00:01:34;;;;;;;0.4;0.4;;;;;;;;;;;;;
2021/03/18 00:03:59;;;;;;;0.8;0.4;;;;;;;;;;;;;
2021/03/18 00:06:25;;;;;;;0.4;0.4;;;;;;;;;;;;;
2021/03/18 00:08:50;;;;;;;0.4;0.4;;;;;;;;;;;;;
2021/03/18 00:11:17;;;;;;;0.3;0.3;;;;;;;;;;;;;
2021/03/18 00:13:42;;;;;;;0.2;0.2;;;;;;;;;;;;;
2021/03/18 00:16:14;;;;;;;0.4;0.4;;;;;;;;;;;;;
2021/03/18 00:18:40;;;;;;;0.6;0.4;;;;;;;;;;;;;
2021/03/18 00:21:05;;;;;;;0.4;0.4;;;;;;;;;;;;;
2021/03/18 00:23:32;;;;;;;0.5;0.4;;;;;;;;;;;;;
2021/03/18 00:25:57;;;;;;;0.4;0.2;;;;;;;;;;;;;
2021/03/18 00:28:22;;;;;;;0.3;0.3;;;;;;;;;;;;;
2021/03/18 00:30:47;;;;;;;1.7;0.7;;;;;;;;;;;;;
2021/03/18 00:33:12;;;;;;;0.4;0.4;;;;;;;;;;;;;
2021/03/18 00:35:38;;;;;;;0.6;0.5;;;;;;;;;;;;;
2021/03/18 00:38:04;;;;;;;0.7;0.5;;;;;;;;;;;;;
2021/03/18 00:40:29;;;;;;;0.4;0.4;;;;;;;;;;;;;
2021/03/18 00:42:55;;;;;;;0.6;0.5;;;;;;;;;;;;;
2021/03/18 00:45:21;;;;;;;0.3;0.3;;;;;;;;;;;;;
2021/03/18 00:47:46;;;;;;;0.2;0.2;;;;;;;;;;;;;
2021/03/18 00:50:11;;;;;;;0.6;0.6;;;;;;;;;;;;;
2021/03/18 00:52:37;;;;;;;0.4;0.4;;;;;;;;;;;;;
2021/03/18 00:55:02;;;;;;;0.8;0.8;;;;;;;;;;;;;
2021/03/18 00:57:29;;;;;;;0.7;0.4;;;;;;;;;;;;;
2021/03/18 00:59:54;;;;;;;0.3;0.3;;;;;;;;;;;;;
2021/03/18 01:02:21;;;;;;;0.5;0.5;;;;;;;;;;;;;
2021/03/18 01:04:47;;;;;;;0.4;0.4;;;;;;;;;;;;;
2021/03/18 01:07:11;;;;;;;0.3;0.3;;;;;;;;;;;;;
2021/03/18 01:09:36;;;;;;;0.3;0.3;;;;;;;;;;;;;
2021/03/18 01:12:03;;;;;;;0.5;0.5;;;;;;;;;;;;;
2021/03/18 01:14:28;;;;;;;1.1;0.6;;;;;;;;;;;;;
2021/03/18 01:16:55;;;;;;;0.7;0.5;;;;;;;;;;;;;
2021/03/18 01:19:21;;;;;;;0.7;0.5;;;;;;;;;;;;;
2021/03/18 01:21:46;;;;;;;0.5;0.5;;;;;;;;;;;;;
2021/03/18 01:24:11;;;;;;;0.3;0.3;;;;;;;;;;;;;
2021/03/18 01:26:37;;;;;;;0.2;0.2;;;;;;;;;;;;;
2021/03/18 01:29:02;;;;;;;0.4;0.4;;;;;;;;;;;;;
2021/03/18 01:31:28;;;;;;;0.2;0.2;;;;;;;;;;;;;
2021/03/18 01:33:53;;;;;;;0.4;0.4;;;;;;;;;;;;;
2021/03/18 01:36:19;;;;;;;0.6;0.6;;;;;;;;;;;;;
2021/03/18 01:38:45;;;;;;;0.6;0.6;;;;;;;;;;;;;
2021/03/18 01:41:10;;;;;;;0.3;0.3;;;;;;;;;;;;;
2021/03/18 01:43:35;;;;;;;0.8;0.5;;;;;;;;;;;;;
2021/03/18 01:46:01;;;;;;;0.5;0.5;;;;;;;;;;;;;
2021/03/18 01:48:27;;;;;;;0.5;0.5;;;;;;;;;;;;;
2021/03/18 01:50:52;;;;;;;1;0.9;;;;;;;;;;;;;
2021/03/18 01:53:17;;;;;;;0.8;0.6;;;;;;;;;;;;;
2021/03/18 01:55:43;;;;;;;0.7;0.4;;;;;;;;;;;;;
2021/03/18 01:58:08;;;;;;;0.4;0.4;;;;;;;;;;;;;
2021/03/18 02:00:35;;;;;;;0.7;0.6;;;;;;;;;;;;;
2021/03/18 02:03:00;;;;;;;0.8;0.7;;;;;;;;;;;;;
2021/03/18 02:05:25;;;;;;;0.4;0.3;;;;;;;;;;;;;
2021/03/18 02:07:52;;;;;;;1.2;0.7;;;;;;;;;;;;;
2021/03/18 02:10:16;;;;;;;0.8;0.7;;;;;;;;;;;;;
2021/03/18 02:12:42;;;;;;;0.3;0.3;;;;;;;;;;;;;
2021/03/18 02:15:10;;;;;;;0.4;0.4;;;;;;;;;;;;;
2021/03/18 02:17:35;;;;;;;0.6;0.5;;;;;;;;;;;;;
2021/03/18 02:20:00;;;;;;;1.5;0.9;;;;;;;;;;;;;
2021/03/18 02:22:25;;;;;;;0.5;0.5;;;;;;;;;;;;;
2021/03/18 02:24:50;;;;;;;1.3;0.6;;;;;;;;;;;;;
2021/03/18 02:27:15;;;;;;;0.6;0.5;;;;;;;;;;;;;
2021/03/18 02:29:41;;;;;;;3.5;0.9;;;;;;;;;;;;;
2021/03/18 02:32:06;;;;;;;1.8;1.1;;;;;;;;;;;;;
2021/03/18 02:34:32;;;;;;;0.8;0.7;;;;;;;;;;;;;
2021/03/18 02:36:57;;;;;;;0.6;0.4;;;;;;;;;;;;;
2021/03/18 02:39:22;;;;;;;0.4;0.4;;;;;;;;;;;;;
2021/03/18 02:41:47;;;;;;;0.8;0.5;;;;;;;;;;;;;
2021/03/18 02:44:12;;;;;;;0.6;0.6;;;;;;;;;;;;;
2021/03/18 02:46:38;;;;;;;2.7;0.9;;;;;;;;;;;;;
2021/03/18 02:49:04;;;;;;;0.3;0.3;;;;;;;;;;;;;
2021/03/18 02:51:29;;;;;;;0.6;0.6;;;;;;;;;;;;;
2021/03/18 02:53:55;;;;;;;0.5;0.5;;;;;;;;;;;;;
2021/03/18 02:56:20;;;;;;;0.8;0.7;;;;;;;;;;;;;
2021/03/18 02:58:46;;;;;;;1.7;0.7;;;;;;;;;;;;;
2021/03/18 03:01:11;;;;;;;5.4;0.9;;;;;;;;;;;;;
2021/03/18 03:03:37;;;;;;;0.4;0.4;;;;;;;;;;;;;
2021/03/18 03:06:02;;;;;;;1;0.7;;;;;;;;;;;;;
2021/03/18 03:08:28;;;;;;;1.3;0.9;;;;;;;;;;;;;
2021/03/18 03:10:54;;;;;;;1;0.8;;;;;;;;;;;;;
2021/03/18 03:13:19;;;;;;;3.3;0.6;;;;;;;;;;;;;
2021/03/18 03:15:45;;;;;;;0.9;0.6;;;;;;;;;;;;;
2021/03/18 03:18:10;;;;;;;0.6;0.6;;;;;;;;;;;;;
2021/03/18 03:20:35;;;;;;;0.8;0.6;;;;;;;;;;;;;
2021/03/18 03:23:01;;;;;;;0.7;0.7;;;;;;;;;;;;;
2021/03/18 03:25:26;;;;;;;0.5;0.5;;;;;;;;;;;;;
2021/03/18 03:27:52;;;;;;;1.1;0.9;;;;;;;;;;;;;
2021/03/18 03:30:17;;;;;;;1;0.8;;;;;;;;;;;;;
2021/03/18 03:32:44;;;;;;;0.5;0.5;;;;;;;;;;;;;
2021/03/18 03:35:09;;;;;;;1.2;0.9;;;;;;;;;;;;;
2021/03/18 03:37:35;;;;;;;1;0.9;;;;;;;;;;;;;
2021/03/18 03:40:00;;;;;;;0.8;0.8;;;;;;;;;;;;;
2021/03/18 03:42:26;;;;;;;0.7;0.7;;;;;;;;;;;;;
2021/03/18 03:44:51;;;;;;;2.3;1;;;;;;;;;;;;;
2021/03/18 03:47:17;;;;;;;1.6;1.3;;;;;;;;;;;;;
2021/03/18 03:49:42;;;;;;;1.4;1;;;;;;;;;;;;;
2021/03/18 03:52:09;;;;;;;0.7;0.7;;;;;;;;;;;;;
2021/03/18 03:54:34;;;;;;;1.8;1.4;;;;;;;;;;;;;
2021/03/18 03:57:00;;;;;;;0.7;0.7;;;;;;;;;;;;;
2021/03/18 03:59:25;;;;;;;1.4;1.1;;;;;;;;;;;;;
2021/03/18 04:02:30;;;;;;;1.4;1.2;;;;;;;0.52;87.15039;940.4814;;;;
2021/03/18 04:04:55;;;;;;;2;1.1;;;;;;;0.65;86.85352;940.5243;;;;
2021/03/18 04:07:22;;;;;;;1.8;1.4;;;;;;;0.63;87.02832;940.5414;;;;
2021/03/18 04:09:46;;;;;;;2.6;1.2;;;;;;;0.71;86.76563;940.5703;;;;
2021/03/18 04:12:11;;;;;;;2.1;1.4;;;;;;;0.77;86.27637;940.5507;;;;
2021/03/18 04:14:37;;;;;;;1.1;1;;;;;;;0.9;85.72168;940.5964;;;;
2021/03/18 04:17:04;;;;;;;2.7;1.4;;;;;;;0.95;85.55469;940.5603;;;;
2021/03/18 04:19:29;;;;;;;3.2;1.5;;;;;;;0.89;85.44141;940.5137;;;;
2021/03/18 04:21:57;;;;;;;2.9;1.5;;;;;;;0.99;85.49609;940.6018;;;;
2021/03/18 04:24:22;;;;;;;1.8;1.3;;;;;;;0.95;85.37598;940.6145;;;;
2021/03/18 04:26:50;;;;;;;2.4;1.5;;;;;;;0.95;85.3418;940.6099;;;;
2021/03/18 04:29:15;;;;;;;4.6;1.4;;;;;;;1.16;84.9043;940.6861;;;;
2021/03/18 04:31:42;;;;;;;2.6;1.5;;;;;;;0.96;85.20801;940.6707;;;;
2021/03/18 04:34:07;;;;;;;2;1.5;;;;;;;1.01;85.12988;940.5659;;;;
2021/03/18 04:36:32;;;;;;;1.8;1.2;;;;;;;1;85.375;940.6121;;;;
2021/03/18 04:39:00;;;;;;;1.3;0.9;;;;;;;0.97;85.53613;940.6626;;;;
2021/03/18 04:41:25;;;;;;;2.3;1.2;;;;;;;0.84;86.09961;940.5612;;;;
2021/03/18 04:43:54;;;;;;;1.2;1.1;;;;;;;0.9;85.80176;940.6829;;;;
2021/03/18 04:46:19;;;;;;;1.6;1.3;;;;;;;0.91;85.7793;940.6775;;;;
2021/03/18 04:48:45;;;;;;;2.6;1.7;;;;;;;0.57;86.58008;940.6475;;;;
2021/03/18 04:51:11;;;;;;;1.7;1.5;;;;;;;0.64;86.44043;940.7332;;;;
2021/03/18 04:53:38;;;;;;;2.8;1.3;;;;;;;0.6;86.9668;940.7665;;;;
2021/03/18 04:56:03;;;;;;;1.4;0.9;;;;;;;0.52;86.9502;940.7023;;;;
2021/03/18 04:58:28;;;;;;;1.5;1.4;;;;;;;0.51;87.12695;940.6729;;;;
2021/03/18 05:00:56;;;;;;;5;1.6;;;;;;;0.69;86.72852;940.7097;;;;
2021/03/18 05:03:21;;;;;;;2.3;1.8;;;;;;;0.51;87.41504;940.6898;;;;
2021/03/18 05:05:50;;;;;;;1.6;1.4;;;;;;;0.51;87.62891;940.6487;;;;
2021/03/18 05:08:15;;;;;;;1.6;1.4;;;;;;;0.52;87.28418;940.5998;;;;
2021/03/18 05:10:43;;;;;;;2.1;1.8;;;;;;;0.5;87.53711;940.7311;;;;
2021/03/18 05:13:08;;;;;;;2;1.9;;;;;;;0.47;87.88672;940.6831;;;;
2021/03/18 05:15:33;;;;;;;3.2;1.2;;;;;;;0.41;87.85156;940.6763;;;;
2021/03/18 05:17:59;;;;;;;3.3;2;;;;;;;0.51;88.05273;940.7049;;;;
2021/03/18 05:20:24;;;;;;;2.1;1.6;;;;;;;0.58;87.83301;940.7479;;;;
2021/03/18 05:22:50;;;;;;;2.1;1.7;;;;;;;0.67;87.57324;940.8177;;;;
2021/03/18 05:25:15;;;;;;;4.7;2;;;;;;;0.72;87.39258;940.8175;;;;
2021/03/18 05:27:41;;;;;;;3.4;2.3;;;;;;;0.58;87.52051;940.7918;;;;
2021/03/18 05:30:07;;;;;;;5.6;3.5;;;;;;;0.66;87.24609;940.8217;;;;
2021/03/18 05:32:33;;;;;;;5.8;3.2;;;;;;;0.79;86.93848;940.7828;;;;
2021/03/18 05:34:58;;;;;;;4;3;;;;;;;0.87;86.22852;940.7932;;;;
2021/03/18 05:37:23;;;;;;;7.3;2.6;;;;;;;0.75;85.53613;940.7886;;;;
2021/03/18 05:39:48;;;;;;;5;2.9;;;;;;;0.64;85.57031;940.683;;;;
2021/03/18 05:42:13;;;;;;;5.3;2.6;;;;;;;0.63;85.91211;940.8364;;;;
2021/03/18 05:44:38;;;;;;;4.4;3;;;;;;;0.55;85.96484;940.853;;;;
2021/03/18 05:47:03;;;;;;;4.6;3.3;;;;;;;0.51;86.16602;940.7369;;;;
2021/03/18 05:49:28;;;;;;;4.5;3.2;;;;;;;0.52;85.83496;940.8495;;;;
2021/03/18 05:51:55;;;;;;;4.4;2.4;;;;;;;0.47;85.90332;940.7986;;;;
2021/03/18 05:54:20;;;;;;;7.8;3.7;;;;;;;0.55;86.12988;940.7649;;;;
2021/03/18 05:56:47;;;;;;;4.5;3.6;;;;;;;0.58;85.96875;940.8564;;;;
2021/03/18 05:59:13;;;;;;;4.2;2.9;;;;;;;0.7;85.50293;940.7791;;;;
2021/03/18 06:01:39;;;;;;;5.4;2.4;;;;;;;0.83;85.11719;940.8942;;;;
2021/03/18 06:04:05;;;;;;;4.1;2.8;;;;;;;1.02;84.82031;940.9241;;;;
2021/03/18 06:06:30;;;;;;;5.1;3.3;;;;;;;1.08;84.37402;940.9372;;;;
2021/03/18 06:08:55;;;;;;;5.6;3.1;;;;;;;1.15;84.00684;940.9403;;;;
2021/03/18 06:11:20;;;;;;;4.4;2.6;;;;;;;1.16;83.74219;940.9622;;;;
2021/03/18 06:13:45;;;;;;;5.7;3.6;;;;;;;1.17;83.19824;940.9582;;;;
2021/03/18 06:16:12;;;;;;;5.8;3.7;;;;;;;1.29;83.14355;940.9352;;;;
2021/03/18 06:18:37;;;;;;;6.7;3.7;;;;;;;1.38;82.89258;940.959;;;;
2021/03/18 06:21:03;;;;;;;7.3;4;;;;;;;1.4;82.68359;940.9702;;;;
2021/03/18 06:23:28;;;;;;;4.5;3.5;;;;;;;1.46;82.50488;941.0117;;;;
2021/03/18 06:25:53;;;;;;;4.2;2.8;;;;;;;1.58;82.38379;941.0183;;;;
2021/03/18 06:28:19;;;;;;;3.4;2.6;;;;;;;1.83;81.54688;940.9778;;;;
2021/03/18 06:30:44;;;;;;;5.9;3.6;;;;;;;2.03;80.5332;941.0107;;;;
2021/03/18 06:33:09;;;;;;;4;3.2;;;;;;;2.16;80.19922;941.0086;;;;
2021/03/18 06:35:35;;;;;;;5.6;3.8;;;;;;;2.65;78.73535;941.0283;;;;
2021/03/18 06:38:00;;;;;;;5.3;3.2;;;;;;;3.54;76.05762;940.9598;;;;
2021/03/18 06:40:27;;;;;;;3.8;3;;;;;;;4.33;71.76367;941;;;;
2021/03/18 06:42:51;;;;;;;5.4;3;;;;;;;4.87;68.72363;940.9393;;;;
2021/03/18 06:45:16;;;;;;;3.8;2.9;;;;;;;4.87;67.33789;940.9125;;;;
2021/03/18 06:47:42;;;;;;;3.9;2.5;;;;;;;4.58;67.84277;940.963;;;;
2021/03/18 06:50:07;;;;;;;5.2;3.2;;;;;;;3.66;70.61719;941.0052;;;;
2021/03/18 06:52:32;;;;;;;3;2.5;;;;;;;3.43;71.66895;940.9956;;;;
2021/03/18 06:54:57;;;;;;;5.3;3;;;;;;;3.45;72.48242;941.0203;;;;
2021/03/18 06:57:22;;;;;;;3.3;2.8;;;;;;;3.69;72.27344;940.9936;;;;
2021/03/18 06:59:47;;;;;;;2.9;2.5;;;;;;;3.8;72.08008;941.0761;;;;
2021/03/18 07:02:15;;;;;;;5;2.6;;;;;;;3.89;71.47754;940.9995;;;;
2021/03/18 07:04:40;;;;;;;3.6;2.8;;;;;;;3.62;72.0957;941.0212;;;;
2021/03/18 07:07:05;;;;;;;3.2;2.5;;;;;;;3.61;71.85742;941.0277;;;;
2021/03/18 07:09:30;;;;;;;3.9;2.7;;;;;;;3.39;72.5166;941.0694;;;;
2021/03/18 07:11:55;;;;;;;5.4;2.6;;;;;;;3.51;72.88477;941.1597;;;;
2021/03/18 07:14:20;;;;;;;4.4;3.1;;;;;;;3.39;72;941.149;;;;
2021/03/18 07:16:45;;;;;;;7.2;2.7;;;;;;;3.68;71.4082;941.0967;;;;
2021/03/18 07:19:10;;;;;;;5.1;3.6;;;;;;;3.64;71.53613;941.1083;;;;
2021/03/18 07:21:36;;;;;;;4.3;3.1;;;;;;;3.77;71.22168;941.1395;;;;
2021/03/18 07:24:02;;;;;;;3.7;2.6;;;;;;;3.65;70.89844;941.144;;;;
2021/03/18 07:26:27;;;;;;;4.4;3.2;;;;;;;3.76;70.79297;941.11;;;;
2021/03/18 07:28:53;;;;;;;3.8;2.5;;;;;;;3.93;70.25879;941.1445;;;;
2021/03/18 07:31:18;;;;;;;3.4;2.4;;;;;;;3.66;70.94336;941.1312;;;;
2021/03/18 07:33:44;;;;;;;3.8;2.7;;;;;;;3.55;70.93848;941.1408;;;;
2021/03/18 07:36:09;;;;;;;5;2.5;;;;;;;3.24;71.12207;941.1649;;;;
2021/03/18 07:38:35;;;;;;;4.7;3.1;;;;;;;3.1;72.26367;941.1114;;;;
2021/03/18 07:41:00;;;;;;;3.2;2.4;;;;;;;3.32;71.89844;941.1264;;;;
2021/03/18 07:43:26;;;;;;;3.2;2;;;;;;;2.66;73.04199;941.0923;;;;
2021/03/18 07:45:51;;;;;;;5;2.7;;;;;;;3.13;72.39355;941.1552;;;;
2021/03/18 07:48:16;;;;;;;4;2.8;;;;;;;3.38;72.22363;941.1068;;;;
2021/03/18 07:50:43;;;;;;;4.5;2.7;;;;;;;2.78;72.45801;941.062;;;;
2021/03/18 07:53:09;;;;;;;3.6;2.6;;;;;;;3.16;72.16406;941.0754;;;;
2021/03/18 07:55:36;;;;;;;3.9;3.1;;;;;;;3.14;72.04688;941.0634;;;;
2021/03/18 07:58:01;;;;;;;4;2.9;;;;;;;3.35;72.34082;941.0363;;;;
2021/03/18 08:00:26;;;;;;;3;2.7;;;;;;;3.32;71.83105;941.098;;;;
2021/03/18 08:02:52;;;;;;;4.3;2.9;;;;;;;3.74;71.22852;941.1022;;;;
2021/03/18 08:05:18;;;;;;;5.3;2.8;;;;;;;3.64;71.43652;941.0959;;;;
2021/03/18 08:07:43;;;;;;;5.3;3.1;;;;;;;3.35;72.7334;941.0615;;;;
2021/03/18 08:10:08;;;;;;;6.9;2.9;;;;;;;3.87;70.05762;941.1209;;;;
2021/03/18 08:12:34;;;;;;;3.6;2.5;;;;;;;3.97;70.44531;941.1238;;;;
2021/03/18 08:14:59;;;;;;;5.1;2.8;;;;;;;4.41;69.30371;940.9958;;;;
2021/03/18 08:17:24;;;;;;;6;3.3;;;;;;;4.7;67.31055;941.0151;;;;
2021/03/18 08:19:49;;;;;;;3.6;3;;;;;;;5.19;65.21094;941.0317;;;;
2021/03/18 08:22:15;;;;;;;6.5;2.8;;;;;;;6.07;62.16016;940.9914;;;;
2021/03/18 08:24:40;;;;;;;3.7;2.2;;;;;;;6.12;60.16797;940.9764;;;;
2021/03/18 08:27:05;;;;;;;3;2.1;;;;;;;6.4;60.99707;940.9645;;;;
2021/03/18 08:29:30;;;;;;;3.6;2.3;;;;;;;6.83;57.88965;940.9618;;;;
2021/03/18 08:31:57;;;;;;;1.3;1.2;;;;;;;6.95;57.10254;940.897;;;;
2021/03/18 08:34:22;;;;;;;4.3;1.6;;;;;;;7.01;56.2832;940.9391;;;;
2021/03/18 08:36:47;;;;;;;2.3;1.6;;;;;;;7.3;56.83105;940.9328;;;;
2021/03/18 08:39:13;;;;;;;1.9;1.4;;;;;;;8.41;53.27246;940.872;;;;
2021/03/18 08:41:38;;;;;;;2.9;1.3;;;;;;;9.75;49.82715;940.9506;;;;
2021/03/18 08:44:04;;;;;;;1.7;1.3;;;;;;;10.34;47.86426;940.9069;;;;
2021/03/18 08:46:29;;;;;;;3;1.2;;;;;;;12.82;43.07617;940.8183;;;;
2021/03/18 08:48:54;;;;;;;1.7;1.2;;;;;;;11.97;43.07227;940.8697;;;;
2021/03/18 08:51:20;;;;;;;3.9;1.8;;;;;;;11.41;42.93652;940.8928;;;;
2021/03/18 08:53:48;;;;;;;6.7;1.3;;;;;;;10.05;46.17871;940.9299;;;;
2021/03/18 08:56:13;;;;;;;1.6;1.4;;;;;;;9.29;48.66895;941.0103;;;;
2021/03/18 08:58:38;;;;;;;2.3;1.3;;;;;;;8.33;50.78613;940.8898;;;;
2021/03/18 09:01:03;;;;;;;1.1;0.9;;;;;;;7.34;55.05762;941.0465;;;;
2021/03/18 09:03:28;;;;;;;2;1.5;;;;;;;7.16;55.41992;941.0684;;;;
2021/03/18 09:05:53;;;;;;;1.2;1.1;;;;;;;6.77;56.10254;941.0103;;;;
2021/03/18 09:08:18;;;;;;;3.5;1.3;;;;;;;6.49;57.4707;941.0015;;;;
2021/03/18 09:10:43;;;;;;;2.2;2;;;;;;;6.78;57.45215;941.0613;;;;
2021/03/18 09:13:09;;;;;;;4;1.9;;;;;;;7.31;56.86719;940.9863;;;;
2021/03/18 09:15:42;;;;;;;3.7;2.1;;;;;;;7.28;55.9668;940.9641;;;;
2021/03/18 09:18:08;;;;;;;3.4;1.9;;;;;;;7.62;53.98047;940.9614;;;;
2021/03/18 09:20:33;;;;;;;2.1;1.9;;;;;;;6.13;57.66992;941.0645;;;;
2021/03/18 09:22:59;;;;;;;2;1.6;;;;;;;6.38;57.43262;941.0383;;;;
2021/03/18 09:25:24;;;;;;;4;1.7;;;;;;;6.38;56.71973;941.0162;;;;
2021/03/18 09:27:49;;;;;;;4.5;1.4;;;;;;;6.06;56.94922;941.0103;;;;
2021/03/18 09:30:14;;;;;;;1.6;0.8;;;;;;;5.52;59.65332;941.0006;;;;
2021/03/18 09:32:40;;;;;;;2.4;1.5;;;;;;;5.6;59.31543;941.0681;;;;
2021/03/18 09:35:06;;;;;;;2;1.5;;;;;;;5.79;59.93945;941.1116;;;;
2021/03/18 09:37:31;;;;;;;1.7;1.3;;;;;;;5.91;57.90039;941.0234;;;;
2021/03/18 09:39:56;;;;;;;1.3;1.2;;;;;;;6.24;57.28906;941.072;;;;
2021/03/18 09:42:22;;;;;;;2;1.7;;;;;;;6.48;57.24219;941.0676;;;;
2021/03/18 09:44:47;;;;;;;2.4;1.1;;;;;;;6.14;56.50684;941.0853;;;;
2021/03/18 09:47:12;;;;;;;0.9;0.7;;;;;;;5.58;56.36621;941.0611;;;;
2021/03/18 09:49:37;;;;;;;2;1.1;;;;;;;5.46;57.84082;941.0683;;;;
2021/03/18 09:52:02;;;;;;;1.6;1.1;;;;;;;5.5;58.31836;941.0411;;;;
2021/03/18 09:54:27;;;;;;;1.5;1;;;;;;;5.46;58.47266;941.032;;;;
2021/03/18 09:56:52;;;;;;;2.2;1.5;;;;;;;5.43;58.17383;940.9124;;;;
2021/03/18 09:59:18;;;;;;;1.9;1.4;;;;;;;5.13;58.65234;940.9564;;;;
2021/03/18 10:01:43;;;;;;;1.9;1.1;;;;;;;4.9;58.38477;940.9056;;;;
2021/03/18 10:04:08;;;;;;;1.2;0.9;;;;;;;4.8;58.5166;940.9672;;;;
2021/03/18 10:06:33;;;;;;;2.7;1.5;;;;;;;4.82;58.34961;940.9777;;;;
2021/03/18 10:08:59;;;;;;;1;0.9;;;;;;;4.99;58.25977;940.8903;;;;
2021/03/18 10:11:24;;;;;;;2.3;1.4;;;;;;;4.77;58.11816;940.8256;;;;
2021/03/18 10:13:49;;;;;;;1.6;0.8;;;;;;;4.75;58.14941;940.9324;;;;
2021/03/18 10:16:14;;;;;;;1;0.9;;;;;;;4.92;58.17285;940.8495;;;;
2021/03/18 10:18:39;;;;;;;1.3;1.2;;;;;;;5.31;57.0752;940.808;;;;
2021/03/18 10:21:05;;;;;;;1;0.8;;;;;;;5.6;54.93457;940.7977;;;;
2021/03/18 10:23:31;;;;;;;1.3;1;;;;;;;6.02;53.44238;940.813;;;;
2021/03/18 10:25:56;;;;;;;1.1;1;;;;;;;5.93;54.7627;940.7735;;;;
2021/03/18 10:28:22;;;;;;;1.7;1.2;;;;;;;6.25;53.4248;940.7734;;;;
2021/03/18 10:30:46;;;;;;;1.1;1;;;;;;;5.88;55.44629;940.7466;;;;
2021/03/18 10:33:11;;;;;;;1.3;1;;;;;;;6.05;53.20703;940.722;;;;
2021/03/18 10:35:36;;;;;;;1.2;1.1;;;;;;;6.05;53.39941;940.6202;;;;
2021/03/18 10:38:02;;;;;;;2.2;1.1;;;;;;;6.07;52.97363;940.6451;;;;
2021/03/18 10:40:29;;;;;;;1.2;0.9;;;;;;;5.93;52.97949;940.6914;;;;
2021/03/18 10:42:57;;;;;;;2.4;1.5;;;;;;;5.62;54.22656;940.7095;;;;
2021/03/18 10:45:19;;;;;;;2.1;1.4;;;;;;;5.45;54.79102;940.6705;;;;
2021/03/18 10:47:44;;;;;;;1.1;0.9;;;;;;;5.61;54.91406;940.5931;;;;
2021/03/18 10:50:11;;;;;;;1.5;0.9;;;;;;;5.91;55.57227;940.5981;;;;
2021/03/18 10:52:35;;;;;;;1.3;1;;;;;;;5.84;54.24316;940.553;;;;
2021/03/18 10:55:00;;;;;;;1.3;1.2;;;;;;;5.14;55.0332;940.4341;;;;
2021/03/18 10:57:25;;;;;;;1;0.9;;;;;;;5.24;56.78418;940.5444;;;;
2021/03/18 10:59:50;;;;;;;1.2;1;;;;;;;5.59;54.00879;940.454;;;;
2021/03/18 11:02:16;;;;;;;1.1;1;;;;;;;5.73;52.93066;940.4792;;;;
2021/03/18 11:04:41;;;;;;;1.6;1;;;;;;;5.46;54.03809;940.4412;;;;
2021/03/18 11:07:08;;;;;;;1.6;1.3;;;;;;;5.46;55.4375;940.3639;;;;
2021/03/18 11:09:33;;;;;;;1;0.9;;;;;;;5.91;55.4707;940.4022;;;;
2021/03/18 11:11:58;;;;;;;2.2;1.3;;;;;;;6.24;54.72266;940.445;;;;
2021/03/18 11:14:23;;;;;;;1.7;0.9;;;;;;;7.12;51.31348;940.3752;;;;
2021/03/18 11:16:50;;;;;;;1.6;0.9;;;;;;;7.57;50.50684;940.3847;;;;
2021/03/18 11:19:15;;;;;;;1.9;1.2;;;;;;;8.38;49.4873;940.3074;;;;
2021/03/18 11:21:41;;;;;;;0.9;0.6;;;;;;;9.38;46.40234;940.2324;;;;
2021/03/18 11:24:06;;;;;;;2;1;;;;;;;9.21;45.33594;940.2195;;;;
2021/03/18 11:26:31;;;;;;;1.1;1;;;;;;;9.32;46.97559;940.2361;;;;
2021/03/18 11:28:56;;;;;;;1.6;0.9;;;;;;;10.59;44.33984;940.2155;;;;
2021/03/18 11:31:21;;;;;;;1.6;1.1;;;;;;;12.09;41.11426;940.1286;;;;
2021/03/18 11:33:46;;;;;;;1;0.9;;;;;;;13.39;38.91504;940.0527;;;;
2021/03/18 11:36:11;;;;;;;1.2;0.8;;;;;;;14.07;36.17871;940.0739;;;;
2021/03/18 11:38:37;;;;;;;1;0.8;;;;;;;13.04;37.08008;940.0937;;;;
2021/03/18 11:41:02;;;;;;;0.9;0.8;;;;;;;13.24;37.68359;940.0508;;;;
2021/03/18 11:43:27;;;;;;;3.1;1.4;;;;;;;13.55;36.90625;940.0603;;;;
2021/03/18 11:45:54;;;;;;;1.7;0.9;;;;;;;13.45;37.83984;940.009;;;;
2021/03/18 11:48:18;;;;;;;1.1;0.9;;;;;;;13.95;35.75391;939.9584;;;;
2021/03/18 11:50:43;;;;;;;1.9;1;;;;;;;14.35;34.95703;939.9111;;;;
2021/03/18 11:53:08;;;;;;;2;1.1;;;;;;;14.77;33.97656;939.913;;;;
2021/03/18 11:55:35;;;;;;;1;0.8;;;;;;;14.67;34.60352;939.8661;;;;
2021/03/18 11:58:02;;;;;;;1.3;1;;;;;;;14.16;34.5625;939.8792;;;;
2021/03/18 12:00:26;;;;;;;3.3;1.1;;;;;;;13.37;36.95996;939.8423;;;;
2021/03/18 12:02:51;;;;;;;1.5;1.1;;;;;;;13.49;36.10742;939.7283;;;;
2021/03/18 12:05:17;;;;;;;1.2;1.1;;;;;;;13.84;37.20703;939.8481;;;;
2021/03/18 12:07:42;;;;;;;1.3;0.9;;;;;;;14.94;34.9248;939.8276;;;;
2021/03/18 12:10:07;;;;;;;0.9;0.7;;;;;;;13.57;35.2168;939.7403;;;;
2021/03/18 12:12:32;;;;;;;0.7;0.7;;;;;;;14.56;34.13379;939.7572;;;;
2021/03/18 12:14:57;;;;;;;0.9;0.9;;;;;;;14.44;34.36621;939.688;;;;
2021/03/18 12:17:23;;;;;;;1.8;0.9;;;;;;;13.87;34.06738;939.6063;;;;
2021/03/18 12:19:48;;;;;;;0.7;0.7;;;;;;;12.77;36.27734;939.7102;;;;
2021/03/18 12:22:13;;;;;;;1.5;0.7;;;;;;;12.66;37.28906;939.6372;;;;
2021/03/18 12:24:40;;;;;;;0.9;0.7;;;;;;;12.79;36.85254;939.7134;;;;
2021/03/18 12:27:05;;;;;;;0.7;0.6;;;;;;;12.55;36.48828;939.6397;;;;
2021/03/18 12:29:31;;;;;;;2.6;0.8;;;;;;;12.72;35.5166;939.6086;;;;
2021/03/18 12:31:56;;;;;;;1.8;1.1;;;;;;;13.44;35.40234;939.5642;;;;
2021/03/18 12:34:23;;;;;;;1.4;1.1;;;;;;;13.92;33.51953;939.579;;;;
2021/03/18 12:36:48;;;;;;;1.2;0.8;;;;;;;13.21;33.76367;939.5195;;;;
2021/03/18 12:39:14;;;;;;;1.3;1;;;;;;;12.85;35.1709;939.4431;;;;
2021/03/18 12:41:39;;;;;;;1.1;0.8;;;;;;;12.91;34.64746;939.512;;;;
2021/03/18 12:44:05;;;;;;;1.6;1;;;;;;;12.92;34.83203;939.456;;;;
2021/03/18 12:46:30;;;;;;;1.7;0.8;;;;;;;10.85;38.72168;939.4408;;;;
2021/03/18 12:48:56;;;;;;;3.1;1.2;;;;;;;10.99;37.76367;939.4406;;;;
2021/03/18 12:51:21;;;;;;;0.9;0.9;;;;;;;9.91;39.37891;939.3716;;;;
2021/03/18 12:53:46;;;;;;;0.7;0.7;;;;;;;8.97;42.59277;939.405;;;;
2021/03/18 12:56:12;;;;;;;1.3;0.9;;;;;;;8.37;44.49805;939.3717;;;;
2021/03/18 12:58:37;;;;;;;2.9;1.2;;;;;;;8.39;45.86426;939.3285;;;;
2021/03/18 13:01:03;;;;;;;3.1;0.6;;;;;;;8.16;47.20313;939.2861;;;;
2021/03/18 13:03:29;;;;;;;1.3;1.1;;;;;;;9.97;43.92285;939.2561;;;;
2021/03/18 13:05:55;;;;;;;1.1;0.9;;;;;;;10.88;39.79883;939.2826;;;;
2021/03/18 13:08:20;;;;;;;0.9;0.7;;;;;;;10.25;41.76074;939.3329;;;;
2021/03/18 13:10:48;;;;;;;1.8;1.3;;;;;;;10.12;41.45117;939.2886;;;;
2021/03/18 13:13:12;;;;;;;1.1;0.7;;;;;;;9.57;41.4668;939.1928;;;;
2021/03/18 13:15:37;;;;;;;1.1;1;;;;;;;9.34;42.28711;939.2764;;;;
2021/03/18 13:18:03;;;;;;;2.7;1.6;;;;;;;9.74;44.02441;939.2647;;;;
2021/03/18 13:20:28;;;;;;;2.3;1.4;;;;;;;9.81;43.53027;939.2922;;;;
2021/03/18 13:22:55;;;;;;;2.3;1.3;;;;;;;10.65;43.39941;939.2609;;;;
2021/03/18 13:25:21;;;;;;;1.3;1.2;;;;;;;11.04;42.4082;939.1912;;;;
2021/03/18 13:27:46;;;;;;;3.9;1;;;;;;;11.28;40.46387;939.2795;;;;
2021/03/18 13:30:11;;;;;;;4.3;0.8;;;;;;;11.32;40.1709;939.2456;;;;
2021/03/18 13:32:37;;;;;;;1.6;1.1;;;;;;;11.52;40.17773;939.131;;;;
2021/03/18 13:35:02;;;;;;;3.5;1;;;;;;;13.17;37.25293;939.1161;;;;
2021/03/18 13:37:29;;;;;;;1.4;0.9;;;;;;;11.78;39.25195;939.1194;;;;
2021/03/18 13:39:54;;;;;;;2.4;0.9;;;;;;;13.06;38.0127;939.0505;;;;
2021/03/18 13:42:20;;;;;;;1.6;1.1;;;;;;;13.52;36.13281;939.0419;;;;
2021/03/18 13:44:45;;;;;;;1.3;1.2;;;;;;;13.14;37.12402;939.0753;;;;
2021/03/18 13:47:10;;;;;;;2.6;1.5;;;;;;;11.73;38.96191;939.0889;;;;
2021/03/18 13:49:35;;;;;;;1.6;1.3;;;;;;;9.38;44.99023;939.076;;;;
2021/03/18 13:52:01;;;;;;;3.2;1.6;;;;;;;8.62;46.93457;938.9634;;;;
2021/03/18 13:54:26;;;;;;;2.4;1.4;;;;;;;8.16;48.14551;938.9546;;;;
2021/03/18 13:56:51;;;;;;;3.2;1.8;;;;;;;7.56;50.40234;939.0317;;;;
2021/03/18 13:59:17;;;;;;;2.5;1.9;;;;;;;5.91;55.93359;939.043;;;;
2021/03/18 14:01:41;;;;;;;2.4;1.5;;;;;;;6.06;54.62109;938.9099;;;;
2021/03/18 14:04:08;;;;;;;1.7;1.3;;;;;;;6.46;53.56445;938.9534;;;;
2021/03/18 14:06:33;;;;;;;3.6;1.3;;;;;;;5.83;55.38281;938.9631;;;;
2021/03/18 14:09:00;;;;;;;3.2;1.3;;;;;;;5.83;56.27441;939.0033;;;;
2021/03/18 14:11:25;;;;;;;3;1.1;;;;;;;5.8;54.88184;938.9659;;;;
2021/03/18 14:13:50;;;;;;;3;2;;;;;;;4.96;59.42871;938.9067;;;;
2021/03/18 14:16:19;;;;;;;2.2;1.9;;;;;;;4.69;60.00098;938.9373;;;;
2021/03/18 14:18:44;;;;;;;1.7;1.2;;;;;;;4.48;61.15137;938.9182;;;;
2021/03/18 14:21:09;;;;;;;2.1;1.6;;;;;;;4.7;60.36133;938.8982;;;;
2021/03/18 14:23:34;;;;;;;1.8;1.2;;;;;;;4.05;62.62109;938.9246;;;;
2021/03/18 14:26:00;;;;;;;2.1;1.3;;;;;;;4.35;62.97852;938.8986;;;;
2021/03/18 14:28:25;;;;;;;2.1;1.4;;;;;;;4.27;63.56348;938.8582;;;;
2021/03/18 14:30:51;;;;;;;2;1.1;;;;;;;4.29;64.21973;938.8681;;;;
2021/03/18 14:33:16;;;;;;;4.1;1.5;;;;;;;4.09;64.80664;938.7864;;;;
2021/03/18 14:35:42;;;;;;;3.9;1.5;;;;;;;4.36;64.41113;938.7619;;;;
2021/03/18 14:38:07;;;;;;;1.6;1.2;;;;;;;4.6;63.07227;938.7281;;;;
2021/03/18 14:40:35;;;;;;;1.7;1.4;;;;;;;5.11;62.16797;938.7198;;;;
2021/03/18 14:43:00;;;;;;;1.9;1.6;;;;;;;5.74;59.40137;938.6837;;;;
2021/03/18 14:45:26;;;;;;;1.9;1.2;;;;;;;5.75;56.82813;938.6516;;;;
2021/03/18 14:47:51;;;;;;;1.5;1.3;;;;;;;5.35;57.84766;938.6247;;;;
2021/03/18 14:50:17;;;;;;;1.8;1.7;;;;;;;5.27;60.96094;938.5891;;;;
2021/03/18 14:52:42;;;;;;;1.4;1.1;;;;;;;4.97;60.96191;938.5383;;;;
2021/03/18 14:55:08;;;;;;;2.5;1.6;;;;;;;5.02;58.99805;938.5159;;;;
2021/03/18 14:57:33;;;;;;;3.3;2.2;;;;;;;4.78;59.40234;938.4414;;;;
2021/03/18 14:59:58;;;;;;;1.7;1.4;;;;;;;4.67;61.68555;938.4861;;;;
2021/03/18 15:02:23;;;;;;;2.3;1.5;;;;;;;4.87;59.61914;938.4407;;;;
2021/03/18 15:04:48;;;;;;;2.5;1.6;;;;;;;4.5;59.39844;938.4885;;;;
2021/03/18 15:07:14;;;;;;;1.9;1.6;;;;;;;4.54;59.71973;938.3943;;;;
2021/03/18 15:09:43;;;;;;;4.2;1.6;;;;;;;4.67;58.20508;938.3898;;;;
2021/03/18 15:12:08;;;;;;;2.6;1.9;;;;;;;4.95;60.85938;938.3879;;;;
2021/03/18 15:14:33;;;;;;;1.2;1.1;;;;;;;4.94;61.14941;938.3568;;;;
2021/03/18 15:16:58;;;;;;;3.5;1.1;;;;;;;4.93;60.87793;938.3541;;;;
2021/03/18 15:19:23;;;;;;;1.8;1.3;;;;;;;4.69;59.87695;938.3711;;;;
2021/03/18 15:21:49;;;;;;;1.5;0.9;;;;;;;4.73;58.86719;938.2816;;;;
2021/03/18 15:24:14;;;;;;;1.4;1.2;;;;;;;5.02;58.8291;938.3147;;;;
2021/03/18 15:26:40;;;;;;;2.9;1.9;;;;;;;5.1;59.78711;938.2603;;;;
2021/03/18 15:29:09;;;;;;;2.1;1.5;;;;;;;4.89;59.35156;938.2629;;;;
2021/03/18 15:31:31;;;;;;;1.8;1.1;;;;;;;4.57;63.0791;938.31;;;;
2021/03/18 15:33:56;;;;;;;2.4;1.7;;;;;;;4.3;62.75781;938.272;;;;
2021/03/18 15:36:22;;;;;;;2.8;1.4;;;;;;;4.34;64.59766;938.2544;;;;
2021/03/18 15:38:47;;;;;;;3.5;2.1;;;;;;;4.16;66.96777;938.1473;;;;